sensor_id;sensor_type;location;lat;lon;timestamp;pressure;altitude;pressure_sealevel;temperature;humidity
81999;BME280;71598;46.516;-122.928;2023-09-30T00:00:14;99702.80;;;16.56;26.61
81999;BME280;71598;46.516;-122.928;2023-09-30T00:02:41;99700.88;;;16.53;26.52
81999;BME280;71598;46.516;-122.928;2023-09-30T00:05:06;99697.88;;;16.56;26.34
81999;BME280;71598;46.516;-122.928;2023-09-30T00:07:29;99696.17;;;16.81;26.42
81999;BME280;71598;46.516;-122.928;2023-09-30T00:09:55;99697.53;;;16.25;26.79
81999;BME280;71598;46.516;-122.928;2023-09-30T00:12:21;99697.65;;;16.19;26.83
81999;BME280;71598;46.516;-122.928;2023-09-30T00:14:46;99704.68;;;16.06;26.90
81999;BME280;71598;46.516;-122.928;2023-09-30T00:17:11;99704.19;;;16.17;26.93
81999;BME280;71598;46.516;-122.928;2023-09-30T00:19:37;99700.57;;;16.44;26.77
81999;BME280;71598;46.516;-122.928;2023-09-30T00:22:02;99699.60;;;16.15;26.98
81999;BME280;71598;46.516;-122.928;2023-09-30T00:24:29;99700.77;;;16.57;26.42
81999;BME280;71598;46.516;-122.928;2023-09-30T00:26:53;99705.10;;;16.78;26.18
81999;BME280;71598;46.516;-122.928;2023-09-30T00:29:18;99703.73;;;17.68;25.87
81999;BME280;71598;46.516;-122.928;2023-09-30T00:31:44;99700.65;;;17.61;26.27
81999;BME280;71598;46.516;-122.928;2023-09-30T00:34:15;99705.76;;;17.69;26.25
81999;BME280;71598;46.516;-122.928;2023-09-30T00:36:35;99707.91;;;16.74;26.38
81999;BME280;71598;46.516;-122.928;2023-09-30T00:39:04;99706.87;;;16.86;26.22
81999;BME280;71598;46.516;-122.928;2023-09-30T00:41:26;99708.21;;;16.67;26.50
81999;BME280;71598;46.516;-122.928;2023-09-30T00:43:51;99711.93;;;16.86;26.57
81999;BME280;71598;46.516;-122.928;2023-09-30T00:46:26;99713.03;;;17.03;26.66
81999;BME280;71598;46.516;-122.928;2023-09-30T00:48:43;99710.73;;;16.83;26.82
81999;BME280;71598;46.516;-122.928;2023-09-30T00:51:07;99711.39;;;16.63;26.96
81999;BME280;71598;46.516;-122.928;2023-09-30T00:53:33;99714.89;;;16.24;26.96
81999;BME280;71598;46.516;-122.928;2023-09-30T00:55:59;99718.31;;;16.59;26.87
81999;BME280;71598;46.516;-122.928;2023-09-30T00:58:25;99718.61;;;16.64;27.09
81999;BME280;71598;46.516;-122.928;2023-09-30T01:00:50;99720.93;;;16.92;27.05
81999;BME280;71598;46.516;-122.928;2023-09-30T01:03:16;99721.27;;;16.72;27.05
81999;BME280;71598;46.516;-122.928;2023-09-30T01:05:42;99724.64;;;17.26;26.87
81999;BME280;71598;46.516;-122.928;2023-09-30T01:08:08;99727.32;;;17.16;27.08
81999;BME280;71598;46.516;-122.928;2023-09-30T01:10:32;99730.39;;;16.75;27.45
81999;BME280;71598;46.516;-122.928;2023-09-30T01:12:57;99734.34;;;16.87;27.44
81999;BME280;71598;46.516;-122.928;2023-09-30T01:15:23;99738.30;;;16.22;28.05
81999;BME280;71598;46.516;-122.928;2023-09-30T01:17:48;99736.12;;;16.31;27.71
81999;BME280;71598;46.516;-122.928;2023-09-30T01:20:15;99740.81;;;16.65;27.70
81999;BME280;71598;46.516;-122.928;2023-09-30T01:22:39;99739.64;;;16.71;27.61
81999;BME280;71598;46.516;-122.928;2023-09-30T01:25:06;99739.08;;;16.83;27.73
81999;BME280;71598;46.516;-122.928;2023-09-30T01:27:29;99745.77;;;16.54;27.91
81999;BME280;71598;46.516;-122.928;2023-09-30T01:29:54;99745.22;;;17.02;27.37
81999;BME280;71598;46.516;-122.928;2023-09-30T01:32:20;99746.49;;;17.12;27.55
81999;BME280;71598;46.516;-122.928;2023-09-30T01:34:45;99749.63;;;16.74;27.68
81999;BME280;71598;46.516;-122.928;2023-09-30T01:37:10;99748.55;;;17.17;27.45
81999;BME280;71598;46.516;-122.928;2023-09-30T01:39:36;99749.83;;;16.43;27.84
81999;BME280;71598;46.516;-122.928;2023-09-30T01:42:01;99751.53;;;16.78;27.36
81999;BME280;71598;46.516;-122.928;2023-09-30T01:44:26;99749.88;;;16.68;27.40
81999;BME280;71598;46.516;-122.928;2023-09-30T01:46:52;99753.89;;;16.41;27.46
81999;BME280;71598;46.516;-122.928;2023-09-30T01:49:18;99752.43;;;16.65;27.48
81999;BME280;71598;46.516;-122.928;2023-09-30T01:51:43;99752.35;;;17.31;26.93
81999;BME280;71598;46.516;-122.928;2023-09-30T01:54:08;99754.11;;;17.29;26.98
81999;BME280;71598;46.516;-122.928;2023-09-30T01:56:33;99754.60;;;17.57;26.91
81999;BME280;71598;46.516;-122.928;2023-09-30T01:58:59;99754.76;;;17.55;26.48
81999;BME280;71598;46.516;-122.928;2023-09-30T02:01:24;99757.16;;;17.94;26.14
81999;BME280;71598;46.516;-122.928;2023-09-30T02:03:51;99753.02;;;19.40;25.24
81999;BME280;71598;46.516;-122.928;2023-09-30T02:06:15;99755.65;;;18.43;26.11
81999;BME280;71598;46.516;-122.928;2023-09-30T02:08:40;99755.60;;;18.83;25.62
81999;BME280;71598;46.516;-122.928;2023-09-30T02:11:06;99758.43;;;18.33;25.79
81999;BME280;71598;46.516;-122.928;2023-09-30T02:13:32;99758.41;;;17.63;26.35
81999;BME280;71598;46.516;-122.928;2023-09-30T02:15:56;99759.49;;;17.27;25.95
81999;BME280;71598;46.516;-122.928;2023-09-30T02:18:21;99761.52;;;18.20;25.80
81999;BME280;71598;46.516;-122.928;2023-09-30T02:20:47;99761.34;;;18.45;24.95
81999;BME280;71598;46.516;-122.928;2023-09-30T02:23:12;99765.58;;;18.90;24.08
81999;BME280;71598;46.516;-122.928;2023-09-30T02:25:38;99768.10;;;18.94;24.36
81999;BME280;71598;46.516;-122.928;2023-09-30T02:28:03;99768.76;;;18.31;24.79
81999;BME280;71598;46.516;-122.928;2023-09-30T02:30:27;99778.31;;;15.16;27.08
81999;BME280;71598;46.516;-122.928;2023-09-30T02:32:53;99771.85;;;16.93;25.95
81999;BME280;71598;46.516;-122.928;2023-09-30T02:35:18;99780.85;;;15.44;26.62
81999;BME280;71598;46.516;-122.928;2023-09-30T02:37:45;99780.83;;;16.70;26.07
81999;BME280;71598;46.516;-122.928;2023-09-30T02:40:10;99779.73;;;16.92;25.58
81999;BME280;71598;46.516;-122.928;2023-09-30T02:42:35;99775.12;;;17.96;24.95
81999;BME280;71598;46.516;-122.928;2023-09-30T02:45:01;99777.15;;;18.28;24.70
81999;BME280;71598;46.516;-122.928;2023-09-30T02:47:27;99782.47;;;18.22;24.68
81999;BME280;71598;46.516;-122.928;2023-09-30T02:49:53;99788.98;;;17.12;25.20
81999;BME280;71598;46.516;-122.928;2023-09-30T02:52:17;99788.56;;;18.06;24.62
81999;BME280;71598;46.516;-122.928;2023-09-30T02:54:42;99796.22;;;16.24;25.98
81999;BME280;71598;46.516;-122.928;2023-09-30T02:57:09;99797.17;;;16.88;25.70
81999;BME280;71598;46.516;-122.928;2023-09-30T02:59:33;99792.27;;;18.35;24.58
81999;BME280;71598;46.516;-122.928;2023-09-30T03:01:59;99793.70;;;17.69;24.68
81999;BME280;71598;46.516;-122.928;2023-09-30T03:04:28;99793.34;;;18.63;24.09
81999;BME280;71598;46.516;-122.928;2023-09-30T03:06:50;99792.48;;;18.31;23.88
81999;BME280;71598;46.516;-122.928;2023-09-30T03:09:15;99794.01;;;18.72;23.73
81999;BME280;71598;46.516;-122.928;2023-09-30T03:11:41;99796.05;;;17.82;24.15
81999;BME280;71598;46.516;-122.928;2023-09-30T03:14:06;99801.40;;;17.57;24.24
81999;BME280;71598;46.516;-122.928;2023-09-30T03:16:32;99800.14;;;18.36;24.05
81999;BME280;71598;46.516;-122.928;2023-09-30T03:18:57;99803.24;;;17.74;24.43
81999;BME280;71598;46.516;-122.928;2023-09-30T03:21:23;99806.82;;;17.75;24.24
81999;BME280;71598;46.516;-122.928;2023-09-30T03:23:49;99814.23;;;17.81;24.24
81999;BME280;71598;46.516;-122.928;2023-09-30T03:26:14;99816.81;;;18.59;23.52
81999;BME280;71598;46.516;-122.928;2023-09-30T03:28:40;99819.47;;;18.15;24.09
81999;BME280;71598;46.516;-122.928;2023-09-30T03:31:05;99827.02;;;17.24;24.73
81999;BME280;71598;46.516;-122.928;2023-09-30T03:33:30;99826.07;;;17.36;24.70
81999;BME280;71598;46.516;-122.928;2023-09-30T03:35:56;99828.25;;;16.53;25.29
81999;BME280;71598;46.516;-122.928;2023-09-30T03:38:21;99829.84;;;16.82;25.01
81999;BME280;71598;46.516;-122.928;2023-09-30T03:40:46;99827.59;;;16.75;25.37
81999;BME280;71598;46.516;-122.928;2023-09-30T03:43:11;99831.14;;;16.31;25.43
81999;BME280;71598;46.516;-122.928;2023-09-30T03:45:37;99835.94;;;16.25;25.61
81999;BME280;71598;46.516;-122.928;2023-09-30T03:48:03;99837.65;;;16.09;25.69
81999;BME280;71598;46.516;-122.928;2023-09-30T03:50:36;99838.25;;;16.37;25.51
81999;BME280;71598;46.516;-122.928;2023-09-30T03:53:02;99840.58;;;16.79;25.08
81999;BME280;71598;46.516;-122.928;2023-09-30T03:55:20;99844.78;;;15.64;26.20
81999;BME280;71598;46.516;-122.928;2023-09-30T03:57:46;99844.63;;;16.72;25.49
81999;BME280;71598;46.516;-122.928;2023-09-30T04:00:12;99847.77;;;16.51;25.50
81999;BME280;71598;46.516;-122.928;2023-09-30T04:02:35;99847.29;;;16.33;25.55
81999;BME280;71598;46.516;-122.928;2023-09-30T04:05:02;99848.74;;;16.46;25.31
81999;BME280;71598;46.516;-122.928;2023-09-30T04:07:27;99849.00;;;16.91;25.13
81999;BME280;71598;46.516;-122.928;2023-09-30T04:09:52;99849.35;;;17.07;25.00
81999;BME280;71598;46.516;-122.928;2023-09-30T04:12:17;99850.97;;;15.59;26.08
81999;BME280;71598;46.516;-122.928;2023-09-30T04:14:42;99849.19;;;15.03;25.17
81999;BME280;71598;46.516;-122.928;2023-09-30T04:17:11;99851.91;;;17.19;24.74
81999;BME280;71598;46.516;-122.928;2023-09-30T04:19:33;99850.27;;;17.15;25.20
81999;BME280;71598;46.516;-122.928;2023-09-30T04:21:58;99850.09;;;17.62;24.46
81999;BME280;71598;46.516;-122.928;2023-09-30T04:24:23;99853.16;;;16.94;24.99
81999;BME280;71598;46.516;-122.928;2023-09-30T04:26:50;99855.99;;;16.83;25.19
81999;BME280;71598;46.516;-122.928;2023-09-30T04:29:15;99859.15;;;16.25;25.57
81999;BME280;71598;46.516;-122.928;2023-09-30T04:31:40;99858.13;;;16.10;26.08
81999;BME280;71598;46.516;-122.928;2023-09-30T04:34:06;99857.56;;;15.05;26.81
81999;BME280;71598;46.516;-122.928;2023-09-30T04:36:31;99861.46;;;15.54;26.38
81999;BME280;71598;46.516;-122.928;2023-09-30T04:38:56;99860.37;;;15.47;26.64
81999;BME280;71598;46.516;-122.928;2023-09-30T04:41:21;99862.19;;;15.48;26.58
81999;BME280;71598;46.516;-122.928;2023-09-30T04:43:47;99861.04;;;17.55;24.78
81999;BME280;71598;46.516;-122.928;2023-09-30T04:46:12;99863.96;;;17.07;24.74
81999;BME280;71598;46.516;-122.928;2023-09-30T04:48:38;99866.61;;;17.52;24.37
81999;BME280;71598;46.516;-122.928;2023-09-30T04:51:08;99864.90;;;18.20;23.83
81999;BME280;71598;46.516;-122.928;2023-09-30T04:53:29;99871.75;;;17.69;24.21
81999;BME280;71598;46.516;-122.928;2023-09-30T04:55:55;99873.67;;;17.76;24.12
81999;BME280;71598;46.516;-122.928;2023-09-30T04:58:21;99869.82;;;18.81;23.37
81999;BME280;71598;46.516;-122.928;2023-09-30T05:00:46;99871.21;;;18.90;23.24
81999;BME280;71598;46.516;-122.928;2023-09-30T05:03:11;99871.53;;;18.85;23.27
81999;BME280;71598;46.516;-122.928;2023-09-30T05:05:37;99873.75;;;18.41;23.41
81999;BME280;71598;46.516;-122.928;2023-09-30T05:08:02;99876.97;;;17.27;24.13
81999;BME280;71598;46.516;-122.928;2023-09-30T05:10:27;99872.01;;;18.50;23.52
81999;BME280;71598;46.516;-122.928;2023-09-30T05:12:52;99874.80;;;18.04;23.84
81999;BME280;71598;46.516;-122.928;2023-09-30T05:15:18;99879.13;;;17.68;24.16
81999;BME280;71598;46.516;-122.928;2023-09-30T05:17:43;99874.44;;;18.06;23.71
81999;BME280;71598;46.516;-122.928;2023-09-30T05:20:09;99877.58;;;17.88;24.00
81999;BME280;71598;46.516;-122.928;2023-09-30T05:22:34;99873.72;;;18.33;23.79
81999;BME280;71598;46.516;-122.928;2023-09-30T05:25:00;99881.66;;;17.20;24.45
81999;BME280;71598;46.516;-122.928;2023-09-30T05:27:25;99880.43;;;17.67;24.41
81999;BME280;71598;46.516;-122.928;2023-09-30T05:29:52;99880.19;;;17.70;24.32
81999;BME280;71598;46.516;-122.928;2023-09-30T05:32:17;99883.88;;;16.56;24.75
81999;BME280;71598;46.516;-122.928;2023-09-30T05:34:42;99882.68;;;17.99;24.04
81999;BME280;71598;46.516;-122.928;2023-09-30T05:37:07;99883.35;;;17.84;24.23
81999;BME280;71598;46.516;-122.928;2023-09-30T05:39:32;99886.97;;;17.32;24.23
81999;BME280;71598;46.516;-122.928;2023-09-30T05:41:58;99890.25;;;16.86;24.77
81999;BME280;71598;46.516;-122.928;2023-09-30T05:44:23;99885.89;;;19.15;23.43
81999;BME280;71598;46.516;-122.928;2023-09-30T05:46:48;99892.71;;;18.39;23.94
81999;BME280;71598;46.516;-122.928;2023-09-30T05:49:13;99888.25;;;18.90;23.32
81999;BME280;71598;46.516;-122.928;2023-09-30T05:51:39;99894.20;;;19.34;23.18
81999;BME280;71598;46.516;-122.928;2023-09-30T05:54:04;99898.06;;;18.64;23.60
81999;BME280;71598;46.516;-122.928;2023-09-30T05:56:30;99903.40;;;17.79;24.18
81999;BME280;71598;46.516;-122.928;2023-09-30T05:58:55;99902.85;;;17.66;24.52
81999;BME280;71598;46.516;-122.928;2023-09-30T06:01:20;99898.02;;;19.14;23.49
81999;BME280;71598;46.516;-122.928;2023-09-30T06:03:47;99904.04;;;15.87;25.73
81999;BME280;71598;46.516;-122.928;2023-09-30T06:06:13;99905.92;;;16.72;25.24
81999;BME280;71598;46.516;-122.928;2023-09-30T06:08:37;99908.19;;;17.65;24.53
81999;BME280;71598;46.516;-122.928;2023-09-30T06:11:03;99906.95;;;16.63;25.33
81999;BME280;71598;46.516;-122.928;2023-09-30T06:13:29;99906.80;;;17.75;24.47
81999;BME280;71598;46.516;-122.928;2023-09-30T06:15:54;99905.00;;;17.00;24.95
81999;BME280;71598;46.516;-122.928;2023-09-30T06:18:20;99907.11;;;17.42;24.59
81999;BME280;71598;46.516;-122.928;2023-09-30T06:20:45;99906.59;;;17.40;24.82
81999;BME280;71598;46.516;-122.928;2023-09-30T06:23:10;99906.77;;;17.52;24.64
81999;BME280;71598;46.516;-122.928;2023-09-30T06:25:36;99906.67;;;17.33;24.91
81999;BME280;71598;46.516;-122.928;2023-09-30T06:28:01;99908.02;;;17.34;24.78
81999;BME280;71598;46.516;-122.928;2023-09-30T06:30:26;99906.22;;;17.19;24.78
81999;BME280;71598;46.516;-122.928;2023-09-30T06:32:52;99907.82;;;17.62;24.72
81999;BME280;71598;46.516;-122.928;2023-09-30T06:35:18;99907.23;;;17.58;24.48
81999;BME280;71598;46.516;-122.928;2023-09-30T06:37:43;99910.01;;;17.70;24.54
81999;BME280;71598;46.516;-122.928;2023-09-30T06:40:10;99911.33;;;17.05;24.86
81999;BME280;71598;46.516;-122.928;2023-09-30T06:42:34;99910.57;;;17.46;24.78
81999;BME280;71598;46.516;-122.928;2023-09-30T06:45:00;99912.09;;;17.88;24.35
81999;BME280;71598;46.516;-122.928;2023-09-30T06:47:25;99914.72;;;17.60;24.61
81999;BME280;71598;46.516;-122.928;2023-09-30T06:49:50;99915.66;;;18.40;24.07
81999;BME280;71598;46.516;-122.928;2023-09-30T06:52:16;99917.72;;;18.28;24.35
81999;BME280;71598;46.516;-122.928;2023-09-30T06:54:42;99916.56;;;18.23;24.28
81999;BME280;71598;46.516;-122.928;2023-09-30T06:57:06;99921.62;;;18.08;24.19
81999;BME280;71598;46.516;-122.928;2023-09-30T06:59:33;99927.09;;;18.35;24.13
81999;BME280;71598;46.516;-122.928;2023-09-30T07:01:57;99929.70;;;18.16;24.24
81999;BME280;71598;46.516;-122.928;2023-09-30T07:04:22;99928.14;;;17.57;24.58
81999;BME280;71598;46.516;-122.928;2023-09-30T07:06:49;99927.02;;;17.06;24.96
81999;BME280;71598;46.516;-122.928;2023-09-30T07:09:14;99930.13;;;17.84;24.67
81999;BME280;71598;46.516;-122.928;2023-09-30T07:11:39;99924.62;;;17.62;24.75
81999;BME280;71598;46.516;-122.928;2023-09-30T07:14:05;99926.87;;;18.12;24.40
81999;BME280;71598;46.516;-122.928;2023-09-30T07:16:31;99929.08;;;17.94;24.69
81999;BME280;71598;46.516;-122.928;2023-09-30T07:18:56;99928.11;;;18.11;24.58
81999;BME280;71598;46.516;-122.928;2023-09-30T07:21:21;99927.89;;;17.91;24.43
81999;BME280;71598;46.516;-122.928;2023-09-30T07:23:47;99926.22;;;17.77;24.75
81999;BME280;71598;46.516;-122.928;2023-09-30T07:26:13;99926.84;;;17.59;24.77
81999;BME280;71598;46.516;-122.928;2023-09-30T07:28:38;99927.05;;;17.60;24.61
81999;BME280;71598;46.516;-122.928;2023-09-30T07:31:03;99929.51;;;17.82;24.62
81999;BME280;71598;46.516;-122.928;2023-09-30T07:33:30;99924.85;;;17.78;24.82
81999;BME280;71598;46.516;-122.928;2023-09-30T07:35:55;99925.18;;;17.71;24.68
81999;BME280;71598;46.516;-122.928;2023-09-30T07:38:19;99924.97;;;17.60;24.80
81999;BME280;71598;46.516;-122.928;2023-09-30T07:40:45;99924.53;;;17.02;25.04
81999;BME280;71598;46.516;-122.928;2023-09-30T07:43:10;99925.38;;;17.68;24.74
81999;BME280;71598;46.516;-122.928;2023-09-30T07:45:35;99927.31;;;17.48;24.80
81999;BME280;71598;46.516;-122.928;2023-09-30T07:48:00;99929.40;;;17.13;24.99
81999;BME280;71598;46.516;-122.928;2023-09-30T07:50:26;99928.96;;;17.74;24.83
81999;BME280;71598;46.516;-122.928;2023-09-30T07:52:51;99930.94;;;17.25;24.99
81999;BME280;71598;46.516;-122.928;2023-09-30T07:55:16;99931.50;;;17.32;25.05
81999;BME280;71598;46.516;-122.928;2023-09-30T07:57:42;99935.19;;;17.27;24.94
81999;BME280;71598;46.516;-122.928;2023-09-30T08:00:08;99935.10;;;17.23;24.91
81999;BME280;71598;46.516;-122.928;2023-09-30T08:02:32;99931.93;;;17.63;24.69
81999;BME280;71598;46.516;-122.928;2023-09-30T08:04:57;99934.27;;;17.47;25.01
81999;BME280;71598;46.516;-122.928;2023-09-30T08:07:23;99934.54;;;16.96;24.91
81999;BME280;71598;46.516;-122.928;2023-09-30T08:09:48;99935.94;;;17.46;24.75
81999;BME280;71598;46.516;-122.928;2023-09-30T08:12:13;99938.75;;;17.56;24.87
81999;BME280;71598;46.516;-122.928;2023-09-30T08:14:39;99937.49;;;17.31;24.93
81999;BME280;71598;46.516;-122.928;2023-09-30T08:17:04;99940.18;;;17.53;24.83
81999;BME280;71598;46.516;-122.928;2023-09-30T08:19:30;99939.79;;;17.39;24.91
81999;BME280;71598;46.516;-122.928;2023-09-30T08:21:56;99940.04;;;17.35;24.89
81999;BME280;71598;46.516;-122.928;2023-09-30T08:24:21;99941.91;;;17.04;25.05
81999;BME280;71598;46.516;-122.928;2023-09-30T08:26:46;99946.17;;;17.30;24.91
81999;BME280;71598;46.516;-122.928;2023-09-30T08:29:12;99945.98;;;16.86;25.14
81999;BME280;71598;46.516;-122.928;2023-09-30T08:31:37;99950.29;;;17.40;24.81
81999;BME280;71598;46.516;-122.928;2023-09-30T08:34:03;99950.47;;;16.90;24.98
81999;BME280;71598;46.516;-122.928;2023-09-30T08:36:28;99955.20;;;17.52;24.71
81999;BME280;71598;46.516;-122.928;2023-09-30T08:38:54;99955.19;;;17.44;24.78
81999;BME280;71598;46.516;-122.928;2023-09-30T08:41:31;99952.66;;;17.12;24.88
81999;BME280;71598;46.516;-122.928;2023-09-30T08:43:45;99956.96;;;16.98;25.05
81999;BME280;71598;46.516;-122.928;2023-09-30T08:46:10;99959.48;;;17.11;24.94
81999;BME280;71598;46.516;-122.928;2023-09-30T08:48:36;99960.20;;;17.20;24.95
81999;BME280;71598;46.516;-122.928;2023-09-30T08:51:02;99960.86;;;16.96;25.04
81999;BME280;71598;46.516;-122.928;2023-09-30T08:53:27;99960.03;;;16.83;25.16
81999;BME280;71598;46.516;-122.928;2023-09-30T08:55:54;99960.13;;;16.94;25.01
81999;BME280;71598;46.516;-122.928;2023-09-30T08:58:18;99963.05;;;17.22;24.97
81999;BME280;71598;46.516;-122.928;2023-09-30T09:00:43;99965.68;;;16.75;25.03
81999;BME280;71598;46.516;-122.928;2023-09-30T09:03:09;99965.09;;;17.05;25.04
81999;BME280;71598;46.516;-122.928;2023-09-30T09:05:34;99963.41;;;16.73;25.16
81999;BME280;71598;46.516;-122.928;2023-09-30T09:08:00;99961.22;;;17.24;24.98
81999;BME280;71598;46.516;-122.928;2023-09-30T09:10:25;99959.17;;;17.25;25.12
81999;BME280;71598;46.516;-122.928;2023-09-30T09:12:57;99959.60;;;17.23;24.87
81999;BME280;71598;46.516;-122.928;2023-09-30T09:15:24;99962.37;;;16.88;25.06
81999;BME280;71598;46.516;-122.928;2023-09-30T09:17:42;99961.78;;;16.86;25.19
81999;BME280;71598;46.516;-122.928;2023-09-30T09:20:08;99963.38;;;17.03;25.05
81999;BME280;71598;46.516;-122.928;2023-09-30T09:22:39;99964.24;;;17.06;25.13
81999;BME280;71598;46.516;-122.928;2023-09-30T09:24:59;99962.70;;;16.84;25.06
81999;BME280;71598;46.516;-122.928;2023-09-30T09:27:23;99967.98;;;16.37;25.27
81999;BME280;71598;46.516;-122.928;2023-09-30T09:29:49;99971.07;;;17.19;24.85
81999;BME280;71598;46.516;-122.928;2023-09-30T09:32:15;99972.52;;;16.93;25.08
81999;BME280;71598;46.516;-122.928;2023-09-30T09:34:42;99973.18;;;16.80;25.12
81999;BME280;71598;46.516;-122.928;2023-09-30T09:37:21;99971.65;;;17.12;25.02
81999;BME280;71598;46.516;-122.928;2023-09-30T09:39:30;99972.66;;;17.21;25.09
81999;BME280;71598;46.516;-122.928;2023-09-30T09:41:56;99968.35;;;17.68;24.62
81999;BME280;71598;46.516;-122.928;2023-09-30T09:44:22;99971.75;;;18.16;24.20
81999;BME280;71598;46.516;-122.928;2023-09-30T09:46:48;99970.99;;;17.19;24.92
81999;BME280;71598;46.516;-122.928;2023-09-30T09:49:13;99967.76;;;17.67;24.58
81999;BME280;71598;46.516;-122.928;2023-09-30T09:51:38;99969.01;;;18.23;24.33
81999;BME280;71598;46.516;-122.928;2023-09-30T09:54:04;99970.42;;;18.25;24.34
81999;BME280;71598;46.516;-122.928;2023-09-30T09:56:28;99970.62;;;17.28;24.77
81999;BME280;71598;46.516;-122.928;2023-09-30T09:58:54;99972.86;;;17.53;24.70
81999;BME280;71598;46.516;-122.928;2023-09-30T10:01:19;99971.53;;;17.49;24.71
81999;BME280;71598;46.516;-122.928;2023-09-30T10:03:45;99972.30;;;17.19;24.81
81999;BME280;71598;46.516;-122.928;2023-09-30T10:06:10;99970.31;;;17.02;25.04
81999;BME280;71598;46.516;-122.928;2023-09-30T10:08:40;99972.37;;;16.81;25.21
81999;BME280;71598;46.516;-122.928;2023-09-30T10:11:01;99969.62;;;17.94;24.41
81999;BME280;71598;46.516;-122.928;2023-09-30T10:13:59;99973.64;;;16.72;24.99
81999;BME280;71598;46.516;-122.928;2023-09-30T10:15:52;99973.11;;;16.72;24.89
81999;BME280;71598;46.516;-122.928;2023-09-30T10:18:17;99974.11;;;17.58;24.57
81999;BME280;71598;46.516;-122.928;2023-09-30T10:20:43;99978.64;;;17.18;24.68
81999;BME280;71598;46.516;-122.928;2023-09-30T10:23:24;99978.93;;;16.94;24.86
81999;BME280;71598;46.516;-122.928;2023-09-30T10:25:36;99981.23;;;16.83;25.04
81999;BME280;71598;46.516;-122.928;2023-09-30T10:27:58;99982.24;;;16.68;25.15
81999;BME280;71598;46.516;-122.928;2023-09-30T10:30:24;99981.88;;;17.06;25.19
81999;BME280;71598;46.516;-122.928;2023-09-30T10:33:22;99980.83;;;16.56;25.33
81999;BME280;71598;46.516;-122.928;2023-09-30T10:35:16;99981.14;;;16.52;25.18
81999;BME280;71598;46.516;-122.928;2023-09-30T10:37:41;99981.52;;;16.95;25.01
81999;BME280;71598;46.516;-122.928;2023-09-30T10:40:07;99984.48;;;16.79;25.23
81999;BME280;71598;46.516;-122.928;2023-09-30T10:42:48;99986.87;;;16.97;24.98
81999;BME280;71598;46.516;-122.928;2023-09-30T10:44:57;99987.24;;;17.10;25.07
81999;BME280;71598;46.516;-122.928;2023-09-30T10:47:36;99987.59;;;16.97;25.00
81999;BME280;71598;46.516;-122.928;2023-09-30T10:49:49;99989.01;;;17.67;24.54
81999;BME280;71598;46.516;-122.928;2023-09-30T10:52:22;99990.61;;;17.77;24.34
81999;BME280;71598;46.516;-122.928;2023-09-30T10:54:39;99990.46;;;17.94;23.96
81999;BME280;71598;46.516;-122.928;2023-09-30T10:57:04;99992.12;;;17.40;24.40
81999;BME280;71598;46.516;-122.928;2023-09-30T10:59:30;99990.18;;;17.76;24.23
81999;BME280;71598;46.516;-122.928;2023-09-30T11:01:55;99987.00;;;18.34;23.97
81999;BME280;71598;46.516;-122.928;2023-09-30T11:04:21;99989.82;;;17.90;24.07
81999;BME280;71598;46.516;-122.928;2023-09-30T11:06:47;99990.86;;;18.54;23.78
81999;BME280;71598;46.516;-122.928;2023-09-30T11:09:16;99997.97;;;17.63;24.27
81999;BME280;71598;46.516;-122.928;2023-09-30T11:11:38;99996.95;;;18.66;23.67
81999;BME280;71598;46.516;-122.928;2023-09-30T11:14:03;99998.90;;;18.45;23.67
81999;BME280;71598;46.516;-122.928;2023-09-30T11:16:28;99999.01;;;17.70;24.28
81999;BME280;71598;46.516;-122.928;2023-09-30T11:18:54;99998.79;;;18.06;24.02
81999;BME280;71598;46.516;-122.928;2023-09-30T11:21:18;99999.86;;;18.09;23.84
81999;BME280;71598;46.516;-122.928;2023-09-30T11:23:43;100005.39;;;18.02;24.05
81999;BME280;71598;46.516;-122.928;2023-09-30T11:26:09;100006.03;;;18.17;23.92
81999;BME280;71598;46.516;-122.928;2023-09-30T11:28:44;100011.24;;;18.06;24.06
81999;BME280;71598;46.516;-122.928;2023-09-30T11:31:01;100011.39;;;17.64;24.40
81999;BME280;71598;46.516;-122.928;2023-09-30T11:33:25;100011.34;;;17.47;24.57
81999;BME280;71598;46.516;-122.928;2023-09-30T11:36:01;100015.46;;;17.27;24.59
81999;BME280;71598;46.516;-122.928;2023-09-30T11:38:18;100011.89;;;18.28;23.70
81999;BME280;71598;46.516;-122.928;2023-09-30T11:40:40;100013.28;;;17.84;24.02
81999;BME280;71598;46.516;-122.928;2023-09-30T11:43:09;100013.04;;;17.48;24.25
81999;BME280;71598;46.516;-122.928;2023-09-30T11:45:30;100014.96;;;17.24;24.60
81999;BME280;71598;46.516;-122.928;2023-09-30T11:47:56;100018.19;;;16.87;24.80
81999;BME280;71598;46.516;-122.928;2023-09-30T11:50:22;100019.28;;;15.57;25.91
81999;BME280;71598;46.516;-122.928;2023-09-30T11:52:47;100011.01;;;18.79;23.76
81999;BME280;71598;46.516;-122.928;2023-09-30T11:55:13;100016.00;;;18.71;23.82
81999;BME280;71598;46.516;-122.928;2023-09-30T11:57:38;100025.23;;;17.34;24.56
81999;BME280;71598;46.516;-122.928;2023-09-30T12:00:05;100025.96;;;16.94;24.56
81999;BME280;71598;46.516;-122.928;2023-09-30T12:02:29;100038.18;;;17.32;24.47
81999;BME280;71598;46.516;-122.928;2023-09-30T12:04:54;100033.40;;;17.47;24.23
81999;BME280;71598;46.516;-122.928;2023-09-30T12:07:19;100037.80;;;17.29;24.39
81999;BME280;71598;46.516;-122.928;2023-09-30T12:09:47;100044.40;;;16.73;24.82
81999;BME280;71598;46.516;-122.928;2023-09-30T12:12:11;100044.75;;;16.45;25.49
81999;BME280;71598;46.516;-122.928;2023-09-30T12:14:36;100049.92;;;16.28;25.59
81999;BME280;71598;46.516;-122.928;2023-09-30T12:17:01;100050.22;;;16.32;25.68
81999;BME280;71598;46.516;-122.928;2023-09-30T12:19:26;100056.12;;;14.86;26.67